Time;durP1;ratioP1;P1;durP2;ratioP2;P2;SDS_P1;SDS_P2;PMS_P1;PMS_P2;Temp;Humidity;BMP_temperature;BMP_pressure;BME280_temperature;BME280_humidity;BME280_pressure;Samples;Min_cycle;Max_cycle;Signal;HPM_P1;HPM_P2
2021/07/14 00:00:58;;;;;;;10.25;9.25;;;;;;;22.94;73.87;101035.31;4943996;28;107128;-80
2021/07/14 00:03:25;;;;;;;10.15;9.10;;;;;;;22.94;73.93;101040.88;4948567;28;102614;-80
2021/07/14 00:05:51;;;;;;;10.30;9.23;;;;;;;22.93;73.77;101034.50;4929253;28;102294;-82
2021/07/14 00:08:19;;;;;;;10.15;9.25;;;;;;;22.93;73.68;101040.03;4947361;28;103875;-80
2021/07/14 00:10:46;;;;;;;10.32;9.32;;;;;;;22.92;73.79;101041.22;4944210;28;102470;-80
2021/07/14 00:24:01;;;;;;;9.52;8.73;;;;;;;22.92;73.77;101037.63;4947667;28;102521;-80
2021/07/14 00:26:28;;;;;;;9.55;8.70;;;;;;;22.92;73.76;101043.97;4946746;28;102347;-80
2021/07/14 00:28:55;;;;;;;9.93;9.13;;;;;;;22.93;73.75;101042.00;4944380;28;104812;-80
2021/07/14 00:31:22;;;;;;;9.60;8.80;;;;;;;22.93;73.97;101042.00;4947530;28;102700;-81
2021/07/14 00:33:49;;;;;;;9.57;8.77;;;;;;;22.92;73.91;101038.44;4948301;28;102508;-81
2021/07/14 00:36:16;;;;;;;9.65;8.75;;;;;;;22.93;73.82;101039.25;4950118;28;102117;-81
2021/07/14 00:39:04;;;;;;;9.88;8.98;;;;;;;22.92;73.95;101032.88;4945655;28;104786;-80
2021/07/14 00:41:31;;;;;;;9.55;8.50;;;;;;;22.92;73.60;101037.63;4950506;28;102508;-81
2021/07/14 00:43:57;;;;;;;9.35;8.50;;;;;;;22.93;73.69;101040.03;4954267;28;103341;-80
2021/07/14 00:46:25;;;;;;;9.45;8.65;;;;;;;22.92;73.80;101037.63;4953174;28;102749;-80
2021/07/14 00:48:56;;;;;;;9.40;8.60;;;;;;;22.91;73.96;101042.34;4937379;28;103682;-79
2021/07/14 00:51:22;;;;;;;9.48;8.57;;;;;;;22.92;73.84;101040.41;4953971;28;102319;-80
2021/07/14 00:53:50;;;;;;;9.82;9.02;;;;;;;22.91;73.93;101047.88;4960833;28;102452;-80
2021/07/14 00:56:18;;;;;;;9.50;8.57;;;;;;;22.91;73.79;101047.09;4935880;28;103634;-80
2021/07/14 00:58:45;;;;;;;8.33;7.63;;;;;;;22.92;73.97;101043.19;4935250;28;103586;-80
2021/07/14 01:01:12;;;;;;;9.45;8.65;;;;;;;22.91;73.87;101042.34;4952089;28;102079;-79
2021/07/14 01:03:52;;;;;;;9.20;8.40;;;;;;;22.92;73.99;101043.19;4964641;28;102454;-80
2021/07/14 01:06:28;;;;;;;8.30;7.60;;;;;;;22.91;73.68;101042.34;4949334;28;102666;-80
2021/07/14 01:09:01;;;;;;;9.00;8.20;;;;;;;22.91;74.16;101055.41;4950670;28;103840;-80
2021/07/14 01:11:33;;;;;;;9.52;8.73;;;;;;;22.91;74.17;101052.63;4951499;28;102807;-80
2021/07/14 01:14:06;;;;;;;9.13;8.32;;;;;;;22.91;73.87;101052.63;4948668;28;102160;-80
2021/07/14 01:16:40;;;;;;;9.40;8.50;;;;;;;22.91;74.05;101041.53;4948432;28;102731;-80
2021/07/14 01:19:35;;;;;;;8.98;8.23;;;;;;;22.90;74.03;101046.28;4934913;28;104009;-80
2021/07/14 01:22:09;;;;;;;9.57;8.63;;;;;;;22.89;73.96;101043.84;4940372;28;102437;-81
2021/07/14 01:24:45;;;;;;;9.63;8.80;;;;;;;22.91;73.95;101041.53;4942851;28;102826;-80
2021/07/14 01:27:16;;;;;;;10.02;9.13;;;;;;;22.90;74.12;101039.91;4956095;28;102736;-81
2021/07/14 01:29:51;;;;;;;9.70;8.85;;;;;;;22.89;73.90;101038.28;4942129;28;102770;-80
2021/07/14 01:32:22;;;;;;;10.27;9.38;;;;;;;22.91;74.17;101041.53;4945885;28;102359;-81
2021/07/14 01:34:54;;;;;;;9.55;8.70;;;;;;;22.89;73.90;101043.84;4950870;28;102199;-81
2021/07/14 01:37:22;;;;;;;9.55;8.73;;;;;;;22.89;74.19;101044.63;4934949;28;102409;-81
2021/07/14 01:39:51;;;;;;;11.25;9.57;;;;;;;22.89;73.95;101049.38;4939311;28;104047;-81
2021/07/14 01:42:22;;;;;;;9.27;8.38;;;;;;;22.91;73.90;101052.63;4950583;28;102811;-81
2021/07/14 01:44:50;;;;;;;9.98;9.02;;;;;;;22.89;74.00;101055.75;4947699;28;102487;-80
2021/07/14 01:47:19;;;;;;;9.63;8.75;;;;;;;22.89;73.98;101047.41;4951459;28;102738;-81
2021/07/14 01:49:47;;;;;;;9.27;8.48;;;;;;;22.88;73.91;101047.78;4949026;28;104061;-80
2021/07/14 01:52:17;;;;;;;9.38;8.52;;;;;;;22.91;74.05;101049.88;4949780;28;102639;-80
2021/07/14 01:54:45;;;;;;;10.23;9.23;;;;;;;22.88;74.03;101047.78;4952309;28;102228;-80
2021/07/14 01:57:12;;;;;;;9.90;9.10;;;;;;;22.88;74.00;101058.88;4950039;28;102450;-80
2021/07/14 01:59:43;;;;;;;9.82;8.95;;;;;;;22.89;73.98;101054.94;4951580;28;103961;-80
2021/07/14 02:02:12;;;;;;;9.75;8.85;;;;;;;22.88;73.94;101059.69;4933130;28;102348;-80
2021/07/14 02:04:41;;;;;;;10.23;9.05;;;;;;;22.89;73.99;101054.94;4951689;28;102589;-81
2021/07/14 02:07:11;;;;;;;9.55;8.65;;;;;;;22.88;73.92;101058.88;4949826;28;103342;-81
2021/07/14 02:09:44;;;;;;;9.65;8.75;;;;;;;22.88;73.95;101050.56;4958897;28;104103;-81
2021/07/14 02:12:15;;;;;;;9.60;8.73;;;;;;;22.88;73.85;101053.31;4953383;28;102354;-79
2021/07/14 02:14:47;;;;;;;9.77;8.77;;;;;;;22.87;73.90;101058.06;4947265;28;102740;-80
2021/07/14 02:17:16;;;;;;;9.68;8.88;;;;;;;22.88;73.82;101050.56;4949002;28;103139;-80
2021/07/14 02:19:54;;;;;;;9.15;8.45;;;;;;;22.88;73.81;101045.00;4948227;28;103955;-80
2021/07/14 02:22:21;;;;;;;11.07;9.52;;;;;;;22.87;74.02;101051.72;4941048;28;102455;-80
2021/07/14 02:24:47;;;;;;;9.80;8.90;;;;;;;22.87;74.02;101051.72;4950613;28;102371;-80
2021/07/14 02:27:15;;;;;;;9.68;8.77;;;;;;;22.87;73.89;101054.50;4949290;28;102710;-80
2021/07/14 02:29:44;;;;;;;10.80;9.43;;;;;;;22.87;73.89;101057.25;4947022;28;102769;-80
2021/07/14 02:32:15;;;;;;;9.67;8.87;;;;;;;22.87;73.98;101058.06;4939201;28;102412;-80
2021/07/14 02:34:43;;;;;;;9.32;8.45;;;;;;;22.87;73.80;101054.50;4937339;28;105525;-80
2021/07/14 02:37:12;;;;;;;9.35;8.55;;;;;;;22.87;74.03;101057.25;4945876;28;102721;-80
2021/07/14 02:39:41;;;;;;;9.35;8.45;;;;;;;22.87;73.74;101054.50;4948848;28;104333;-80
2021/07/14 02:42:12;;;;;;;10.00;8.52;;;;;;;22.87;73.94;101060.03;4951968;28;102265;-82
2021/07/14 02:44:42;;;;;;;9.10;8.30;;;;;;;22.87;73.92;101057.25;4948337;28;102340;-80
2021/07/14 02:47:12;;;;;;;9.80;8.90;;;;;;;22.87;73.85;101054.50;4932921;28;102483;-80
2021/07/14 02:49:45;;;;;;;8.88;8.07;;;;;;;22.87;74.14;101057.25;4951154;28;103982;-80
2021/07/14 02:52:14;;;;;;;9.65;8.70;;;;;;;22.86;73.50;101058.41;4949266;28;102248;-80
2021/07/14 02:54:44;;;;;;;8.90;8.15;;;;;;;22.87;73.96;101062.81;4950765;28;102500;-80
2021/07/14 02:57:15;;;;;;;9.23;8.38;;;;;;;22.86;74.03;101055.63;4948726;28;102169;-80
2021/07/14 02:59:44;;;;;;;;;;;;;;;22.87;73.66;101062.81;4935659;28;103453;-80
2021/07/14 03:02:13;;;;;;;8.60;7.80;;;;;;;22.86;73.85;101058.41;4951906;28;102307;-80
2021/07/14 03:04:45;;;;;;;9.93;9.02;;;;;;;22.86;73.84;101047.31;4950775;28;102202;-80
2021/07/14 03:07:12;;;;;;;8.70;8.00;;;;;;;22.86;73.89;101061.19;4947610;28;102342;-80
2021/07/14 03:09:41;;;;;;;8.52;7.82;;;;;;;22.86;73.98;101058.41;4948660;28;103854;-80
2021/07/14 03:12:11;;;;;;;8.98;8.20;;;;;;;22.87;73.86;101051.72;4949218;28;102714;-81
2021/07/14 03:14:43;;;;;;;8.45;7.68;;;;;;;22.86;74.03;101058.41;4948845;28;102504;-80
2021/07/14 03:17:14;;;;;;;8.45;7.75;;;;;;;22.88;73.86;101058.88;4941817;28;102642;-82
2021/07/14 03:19:44;;;;;;;8.55;7.63;;;;;;;22.87;74.24;101057.25;4949832;28;103241;-80
2021/07/14 03:22:12;;;;;;;8.68;7.97;;;;;;;22.87;74.05;101057.25;4938333;28;102343;-81
2021/07/14 03:24:41;;;;;;;8.07;7.37;;;;;;;22.87;73.79;101051.72;4950171;28;102271;-81
2021/07/14 03:27:11;;;;;;;;;;;;;;;22.86;73.79;101061.97;4951035;28;103174;-80
2021/07/14 03:29:39;;;;;;;8.63;7.90;;;;;;;22.88;74.07;101053.31;4958440;28;103873;-80
2021/07/14 03:32:07;;;;;;;8.85;8.13;;;;;;;22.86;74.07;101055.63;4948600;28;102040;-81
2021/07/14 03:34:35;;;;;;;8.60;7.90;;;;;;;22.86;74.01;101058.41;4944014;28;102604;-80
2021/07/14 03:37:06;;;;;;;8.55;7.63;;;;;;;22.86;74.19;101056.44;4949949;28;102132;-81
2021/07/14 03:39:36;;;;;;;8.50;7.80;;;;;;;22.87;73.99;101062.81;4944444;28;102842;-81
2021/07/14 03:42:03;;;;;;;8.65;7.85;;;;;;;22.87;74.12;101068.38;4927624;28;102561;-81
2021/07/14 03:44:31;;;;;;;8.38;7.68;;;;;;;22.88;74.14;101069.97;4948569;28;102093;-81
2021/07/14 03:46:58;;;;;;;8.60;7.85;;;;;;;22.87;73.79;101065.59;4927250;28;102239;-80
2021/07/14 03:49:26;;;;;;;8.32;7.53;;;;;;;22.88;73.91;101069.97;4954046;28;104066;-80
2021/07/14 03:51:55;;;;;;;8.77;7.97;;;;;;;22.88;74.08;101072.75;4947478;28;102030;-80
2021/07/14 03:54:24;;;;;;;8.65;7.95;;;;;;;22.88;74.04;101075.53;4948753;28;102366;-80
2021/07/14 03:56:51;;;;;;;8.77;7.93;;;;;;;22.87;74.12;101074.72;4955024;28;102705;-81
2021/07/14 03:59:18;;;;;;;8.23;7.57;;;;;;;22.87;73.95;101073.91;4955878;28;102717;-80
2021/07/14 04:01:46;;;;;;;8.70;7.78;;;;;;;22.88;74.03;101073.56;4945878;28;102259;-81
2021/07/14 04:04:12;;;;;;;9.02;8.25;;;;;;;22.88;73.90;101075.53;4937916;28;102116;-81
2021/07/14 04:06:43;;;;;;;7.95;7.35;;;;;;;22.88;73.97;101081.88;4944376;28;102198;-80
2021/07/14 04:09:22;;;;;;;8.88;8.07;;;;;;;22.88;74.42;101076.34;4941978;28;103840;-80
2021/07/14 04:11:52;;;;;;;8.75;8.05;;;;;;;22.88;73.94;101081.06;4947605;28;102446;-80
2021/07/14 04:14:19;;;;;;;12.98;7.57;;;;;;;22.88;73.72;101081.06;4946083;28;102382;-80
2021/07/14 04:16:45;;;;;;;8.40;7.70;;;;;;;22.87;73.93;101080.28;4952060;28;102801;-80
2021/07/14 04:19:13;;;;;;;8.57;7.78;;;;;;;22.88;74.04;101083.84;4952545;28;104088;-80
2021/07/14 04:21:39;;;;;;;8.23;7.53;;;;;;;22.89;73.92;101088.25;4950712;28;102743;-80
2021/07/14 04:24:06;;;;;;;8.55;7.85;;;;;;;22.89;73.99;101088.25;4949002;28;102724;-79
2021/07/14 04:26:35;;;;;;;8.68;7.90;;;;;;;22.89;74.00;101088.25;4952601;28;102283;-80
2021/07/14 04:29:03;;;;;;;8.40;7.70;;;;;;;22.89;74.11;101089.03;4943439;28;104162;-80
2021/07/14 04:31:31;;;;;;;8.53;7.83;;;;;;;22.90;74.01;101093.47;4935071;28;102718;-80
2021/07/14 04:33:59;;;;;;;7.70;7.07;;;;;;;22.89;74.19;101089.03;4950169;28;102241;-80
2021/07/14 04:36:25;;;;;;;8.45;7.75;;;;;;;22.90;73.81;101093.47;4950038;28;102589;-80
2021/07/14 04:38:54;;;;;;;8.57;7.87;;;;;;;22.92;74.13;101090.34;4946014;28;103941;-80
2021/07/14 04:41:21;;;;;;;8.30;7.60;;;;;;;22.91;73.87;101088.72;4942818;28;102585;-80
2021/07/14 04:43:49;;;;;;;9.05;8.35;;;;;;;22.91;74.06;101091.50;4951990;28;102465;-81
2021/07/14 04:46:15;;;;;;;8.80;7.90;;;;;;;22.92;74.08;101087.59;4948628;28;102318;-81
2021/07/14 04:48:42;;;;;;;8.15;7.45;;;;;;;22.91;73.98;101089.53;4950157;28;103728;-80
2021/07/14 04:51:08;;;;;;;8.20;7.50;;;;;;;22.92;73.97;101087.59;4951224;28;102648;-81
2021/07/14 04:53:35;;;;;;;8.55;7.85;;;;;;;22.92;74.27;101088.38;4917600;28;102587;-80
2021/07/14 04:56:02;;;;;;;8.63;7.93;;;;;;;22.94;73.79;101088.06;4951501;28;103945;-81
2021/07/14 04:58:29;;;;;;;8.95;8.13;;;;;;;22.93;73.88;101092.78;4950610;28;103917;-80
2021/07/14 05:00:57;;;;;;;9.20;8.40;;;;;;;22.95;74.05;101093.25;4946998;28;102153;-79
2021/07/14 05:03:24;;;;;;;9.40;8.50;;;;;;;22.94;74.06;101097.19;4934083;28;102702;-80
2021/07/14 05:05:52;;;;;;;8.60;7.90;;;;;;;22.95;74.13;101089.66;4951550;28;103192;-80
2021/07/14 05:08:19;;;;;;;8.88;8.07;;;;;;;22.96;74.11;101099.59;4949961;28;103495;-80
2021/07/14 05:10:48;;;;;;;8.95;8.15;;;;;;;22.96;74.01;101094.06;4951904;28;102222;-80
2021/07/14 05:13:16;;;;;;;8.80;7.97;;;;;;;22.96;74.17;101096.84;4950646;28;102250;-80
2021/07/14 05:15:47;;;;;;;8.63;7.90;;;;;;;22.96;74.10;101103.19;4949380;28;102442;-80
2021/07/14 05:18:15;;;;;;;9.10;8.30;;;;;;;22.98;74.14;101109.22;4947658;28;103962;-80
2021/07/14 05:20:42;;;;;;;9.70;8.90;;;;;;;23.00;74.09;101100.53;4945626;28;102407;-80
2021/07/14 05:23:08;;;;;;;8.57;7.97;;;;;;;23.00;74.27;101106.06;4949746;28;103824;-80
2021/07/14 05:25:35;;;;;;;8.85;8.00;;;;;;;23.00;73.89;101101.34;4936614;28;102639;-80
2021/07/14 05:28:03;;;;;;;9.15;8.45;;;;;;;23.01;74.03;101107.72;4949526;28;102713;-85
2021/07/14 05:30:30;;;;;;;8.70;8.00;;;;;;;23.02;74.08;101099.03;4949971;28;102421;-81
2021/07/14 05:32:57;;;;;;;8.82;8.13;;;;;;;23.03;73.96;101102.63;4948975;28;103734;-82
2021/07/14 05:35:25;;;;;;;9.10;8.30;;;;;;;23.05;73.98;101103.09;4951734;28;102155;-82
2021/07/14 05:37:52;;;;;;;9.43;8.40;;;;;;;23.06;73.77;101104.69;4932905;28;103879;-82
2021/07/14 05:40:18;;;;;;;9.35;8.55;;;;;;;23.08;74.15;101102.41;4950714;28;102307;-82
2021/07/14 05:42:45;;;;;;;9.27;8.40;;;;;;;23.09;74.13;101106.78;4951577;28;102086;-82
2021/07/14 05:45:12;;;;;;;8.85;8.05;;;;;;;23.11;73.91;101100.88;4951275;28;102592;-81
2021/07/14 05:47:39;;;;;;;9.38;8.55;;;;;;;23.10;73.89;101108.41;4949520;28;104054;-81
2021/07/14 05:50:06;;;;;;;9.18;8.38;;;;;;;23.13;73.73;101101.34;4946353;28;102617;-81
2021/07/14 05:52:34;;;;;;;9.63;8.20;;;;;;;23.14;73.70;101102.97;4948063;28;102455;-81
2021/07/14 05:55:01;;;;;;;8.83;7.80;;;;;;;23.14;73.74;101106.53;4952677;28;102440;-81
2021/07/14 05:57:27;;;;;;;8.85;8.07;;;;;;;23.16;73.76;101101.47;4948094;28;103847;-81
2021/07/14 05:59:54;;;;;;;9.70;8.73;;;;;;;23.18;73.45;101101.91;4951570;28;102576;-81
2021/07/14 06:02:21;;;;;;;9.10;8.18;;;;;;;23.20;73.67;101098.81;4949248;28;103605;-81
2021/07/14 06:04:47;;;;;;;8.90;8.13;;;;;;;23.20;73.57;101096.03;4950238;28;102262;-83
2021/07/14 06:07:14;;;;;;;8.82;8.10;;;;;;;23.21;73.60;101092.91;4944557;28;102725;-82
2021/07/14 06:09:43;;;;;;;9.15;8.27;;;;;;;23.24;73.85;101100.53;4949766;28;102650;-83
2021/07/14 06:12:10;;;;;;;9.07;8.17;;;;;;;23.25;73.43;101107.69;4947035;28;102082;-82
2021/07/14 06:14:37;;;;;;;9.32;8.43;;;;;;;23.26;73.59;101103.78;4947471;28;102456;-82
2021/07/14 06:17:04;;;;;;;10.13;8.48;;;;;;;23.29;73.51;101096.69;4943552;28;103835;-81
2021/07/14 06:19:32;;;;;;;9.32;8.52;;;;;;;23.31;73.61;101110.25;4935706;28;104374;-82
2021/07/14 06:22:01;;;;;;;9.38;8.25;;;;;;;23.32;73.48;101103.53;4947888;28;102328;-81
2021/07/14 06:24:28;;;;;;;;;;;;;;;23.32;73.53;101096.00;4951014;28;102825;-81
2021/07/14 06:26:58;;;;;;;8.73;7.97;;;;;;;23.32;73.49;101100.75;4950140;28;103927;-81
2021/07/14 06:29:25;;;;;;;8.82;8.02;;;;;;;23.34;73.43;101117.91;4948711;28;102488;-82
2021/07/14 06:31:52;;;;;;;10.23;8.60;;;;;;;23.34;73.65;101109.56;4948226;28;102810;-81
2021/07/14 06:34:19;;;;;;;9.52;8.57;;;;;;;23.36;73.50;101107.22;4948830;28;102671;-81
2021/07/14 06:36:46;;;;;;;8.98;8.10;;;;;;;23.37;73.41;101108.84;4946221;28;105140;-81
2021/07/14 06:39:12;;;;;;;11.27;8.38;;;;;;;23.37;73.43;101109.69;4947965;28;102533;-81
2021/07/14 06:41:39;;;;;;;9.02;8.13;;;;;;;23.38;73.45;101104.94;4953394;28;102373;-81
2021/07/14 06:44:07;;;;;;;9.05;8.15;;;;;;;23.39;73.29;101112.91;4952032;28;102319;-83
2021/07/14 06:46:33;;;;;;;9.73;8.50;;;;;;;23.39;73.34;101110.13;4949889;28;102716;-82
2021/07/14 06:49:00;;;;;;;8.80;8.00;;;;;;;23.40;73.32;101108.16;4949950;28;102400;-81
2021/07/14 06:51:27;;;;;;;9.30;8.35;;;;;;;23.40;73.25;101108.16;4949239;28;103549;-81
2021/07/14 06:53:54;;;;;;;8.68;7.85;;;;;;;23.41;73.30;101110.59;4950406;28;102704;-81
2021/07/14 06:56:20;;;;;;;9.43;8.50;;;;;;;23.41;73.42;101107.00;4950834;28;103894;-81
2021/07/14 06:58:47;;;;;;;9.10;8.20;;;;;;;23.42;73.26;101100.28;4951501;28;102508;-81
2021/07/14 07:01:15;;;;;;;9.90;8.02;;;;;;;23.43;73.29;101107.47;4949624;28;102503;-81
2021/07/14 07:03:42;;;;;;;9.20;8.30;;;;;;;23.42;73.42;101098.31;4951305;28;102438;-82
2021/07/14 07:06:08;;;;;;;8.13;7.32;;;;;;;23.45;73.19;101110.72;4929556;28;103957;-81
2021/07/14 07:08:35;;;;;;;9.05;8.25;;;;;;;23.45;73.37;101111.50;4928885;28;102807;-81
2021/07/14 07:11:04;;;;;;;9.18;8.00;;;;;;;23.45;73.18;101110.72;4945610;28;102589;-82
2021/07/14 07:13:32;;;;;;;8.60;7.80;;;;;;;23.46;73.13;101118.69;4932105;28;102649;-81
2021/07/14 07:16:01;;;;;;;8.77;7.97;;;;;;;23.46;73.17;101106.75;4946430;28;103863;-82
2021/07/14 07:18:30;;;;;;;8.88;7.97;;;;;;;23.47;73.28;101119.47;4942083;28;102624;-82
2021/07/14 07:20:57;;;;;;;9.07;8.27;;;;;;;23.49;73.32;101114.41;4942161;28;104970;-81
2021/07/14 07:23:24;;;;;;;9.20;8.40;;;;;;;23.48;73.20;101108.03;4944010;28;102611;-82
2021/07/14 07:25:53;;;;;;;8.75;7.95;;;;;;;23.49;73.13;101117.97;4947778;28;103984;-81
2021/07/14 07:28:22;;;;;;;8.63;7.82;;;;;;;23.50;72.93;101116.81;4935634;28;102533;-81
2021/07/14 07:30:48;;;;;;;;;;;;;;;23.51;73.24;101114.84;4946589;28;103252;-81
2021/07/14 07:33:15;;;;;;;8.52;7.82;;;;;;;23.51;73.21;101112.06;4945468;28;102698;-81
2021/07/14 07:35:43;;;;;;;8.63;7.70;;;;;;;23.52;73.41;101110.94;4947763;28;104062;-81
2021/07/14 07:38:10;;;;;;;9.10;8.20;;;;;;;23.54;73.21;101107.78;4955895;28;102675;-81
2021/07/14 07:40:36;;;;;;;9.45;8.55;;;;;;;23.53;73.08;101112.53;4946568;28;102489;-81
2021/07/14 07:43:03;;;;;;;8.00;7.20;;;;;;;23.52;73.10;101116.47;4948956;28;102665;-82
2021/07/14 07:45:31;;;;;;;8.10;7.30;;;;;;;23.53;73.09;101118.09;4944669;28;103330;-81
2021/07/14 07:47:58;;;;;;;8.68;7.88;;;;;;;23.55;73.29;101123.28;4947265;28;102347;-80
2021/07/14 07:50:24;;;;;;;8.73;7.70;;;;;;;23.54;72.80;101114.16;4937818;28;102748;-82
2021/07/14 07:52:52;;;;;;;8.23;7.53;;;;;;;23.55;72.98;101118.56;4945885;28;102460;-82
2021/07/14 07:55:19;;;;;;;8.87;8.07;;;;;;;23.56;72.93;101119.38;4935534;28;103871;-81
2021/07/14 07:57:46;;;;;;;8.73;7.93;;;;;;;23.56;73.16;101113.81;4949362;28;102360;-82
2021/07/14 08:00:15;;;;;;;8.32;7.63;;;;;;;23.56;73.02;101117.41;4947156;28;102438;-81
2021/07/14 08:02:42;;;;;;;8.05;7.35;;;;;;;23.58;72.96;101119.81;4947434;28;102444;-82
2021/07/14 08:05:10;;;;;;;8.45;7.75;;;;;;;23.58;73.09;101120.63;4944409;28;103953;-82
2021/07/14 08:07:39;;;;;;;7.32;6.72;;;;;;;23.60;72.94;101114.72;4948127;28;102532;-81
2021/07/14 08:10:09;;;;;;;7.65;6.88;;;;;;;23.60;72.62;101117.50;4943048;28;102789;-82
2021/07/14 08:12:35;;;;;;;8.80;7.85;;;;;;;23.60;72.84;101115.53;4943688;28;102523;-80
2021/07/14 08:15:03;;;;;;;7.90;7.20;;;;;;;23.60;72.88;101115.53;4947445;28;103824;-85
2021/07/14 08:17:30;;;;;;;8.18;7.40;;;;;;;23.61;72.94;101119.13;4949480;28;102325;-81
2021/07/14 08:19:59;;;;;;;7.97;7.28;;;;;;;23.60;72.80;101115.53;4932719;28;103149;-80
2021/07/14 08:22:26;;;;;;;8.10;7.40;;;;;;;23.60;72.71;101111.94;4942330;28;102532;-80
2021/07/14 08:24:53;;;;;;;8.68;7.80;;;;;;;23.60;72.99;101123.06;4944555;28;104763;-80
2021/07/14 08:27:24;;;;;;;8.10;7.40;;;;;;;23.61;72.82;101114.38;4947930;28;102573;-80
2021/07/14 08:29:51;;;;;;;7.68;6.88;;;;;;;23.62;72.88;101120.72;4932605;28;103139;-81
2021/07/14 08:32:17;;;;;;;11.82;7.47;;;;;;;23.63;72.39;101114.03;4942842;28;102146;-81
2021/07/14 08:34:44;;;;;;;9.10;7.88;;;;;;;23.64;72.14;101119.22;4946139;28;104085;-80
2021/07/14 08:37:24;;;;;;;9.02;7.60;;;;;;;23.65;72.06;101118.06;4944841;28;102524;-81
2021/07/14 08:39:52;;;;;;;8.80;7.90;;;;;;;23.65;71.93;101118.06;4931974;28;102562;-81
2021/07/14 08:42:22;;;;;;;7.88;7.20;;;;;;;23.65;71.94;101122.81;4945780;28;102279;-80
2021/07/14 08:44:49;;;;;;;8.45;7.65;;;;;;;23.66;71.04;101116.13;4947854;28;102697;-80
2021/07/14 08:47:16;;;;;;;8.43;7.22;;;;;;;23.65;70.96;101118.06;4943811;28;103482;-80
2021/07/14 08:49:45;;;;;;;8.10;7.22;;;;;;;23.65;70.97;101108.91;4953444;28;102302;-81
2021/07/14 08:52:13;;;;;;;8.05;7.30;;;;;;;23.65;70.84;101112.50;4940134;28;104842;-80
2021/07/14 08:54:42;;;;;;;7.80;7.00;;;;;;;23.65;71.00;101109.72;4945251;28;103907;-80
2021/07/14 08:57:09;;;;;;;8.15;7.15;;;;;;;23.66;71.13;101114.16;4947938;28;103273;-80
2021/07/14 08:59:37;;;;;;;7.32;6.63;;;;;;;23.66;70.99;101116.94;4947460;28;105132;-81
2021/07/14 09:02:04;;;;;;;8.13;7.40;;;;;;;23.65;70.71;101104.16;4930452;28;102917;-81
2021/07/14 09:04:31;;;;;;;12.65;7.07;;;;;;;23.67;70.47;101113.00;4950957;28;104532;-80
2021/07/14 09:06:58;;;;;;;8.68;6.97;;;;;;;23.66;70.49;101111.38;4933099;28;102501;-81
2021/07/14 09:09:25;;;;;;;10.13;6.95;;;;;;;23.67;70.38;101106.66;4950786;28;102601;-81
2021/07/14 09:11:54;;;;;;;7.60;6.88;;;;;;;23.67;70.07;101104.66;4953265;28;102546;-80
2021/07/14 09:14:30;;;;;;;8.32;7.07;;;;;;;23.67;70.30;101110.22;4961671;28;104418;-80
2021/07/14 09:16:59;;;;;;;8.52;6.97;;;;;;;23.68;70.06;101111.84;4952273;28;102414;-80
2021/07/14 09:19:27;;;;;;;7.40;6.70;;;;;;;23.66;70.04;101105.81;4950743;28;103250;-80
2021/07/14 09:21:55;;;;;;;9.23;6.43;;;;;;;23.68;69.53;101106.28;4948806;28;102431;-80
2021/07/14 09:24:28;;;;;;;7.97;7.07;;;;;;;23.66;69.90;101105.81;4950631;28;103911;-80
2021/07/14 09:26:56;;;;;;;7.63;7.03;;;;;;;23.67;70.00;101107.44;4941858;28;102264;-80
2021/07/14 09:29:23;;;;;;;7.43;6.78;;;;;;;23.68;69.76;101114.63;4948206;28;101990;-80
2021/07/14 09:31:51;;;;;;;7.75;6.97;;;;;;;23.67;69.29;101113.00;4934561;28;102684;-80
2021/07/14 09:34:28;;;;;;;7.47;6.72;;;;;;;23.67;69.49;101101.91;4951274;28;103910;-80
2021/07/14 09:37:04;;;;;;;8.13;7.32;;;;;;;23.67;69.01;101101.09;4950749;28;102525;-80
2021/07/14 09:39:33;;;;;;;7.88;6.85;;;;;;;23.67;69.31;101101.91;4953024;28;102394;-80
2021/07/14 09:42:07;;;;;;;7.82;7.13;;;;;;;23.67;69.57;101099.13;4949486;28;103329;-80
2021/07/14 09:44:34;;;;;;;8.25;6.43;;;;;;;23.68;69.54;101097.94;4952522;28;104584;-79
2021/07/14 09:47:16;;;;;;;7.35;6.65;;;;;;;23.68;69.47;101109.06;4943728;28;102136;-78
2021/07/14 09:49:45;;;;;;;7.50;6.50;;;;;;;23.67;69.67;101107.44;4950199;28;102342;-79
2021/07/14 09:52:13;;;;;;;;;;;;;;;23.67;69.86;101099.13;4953919;28;102390;-79
2021/07/14 09:54:40;;;;;;;7.18;6.57;;;;;;;23.68;69.68;101111.84;4947379;28;105312;-80
2021/07/14 09:57:09;;;;;;;7.47;6.75;;;;;;;23.68;69.52;101103.50;4934564;28;102646;-79
2021/07/14 09:59:35;;;;;;;8.02;7.32;;;;;;;23.68;69.46;101109.06;4949527;28;102215;-80
2021/07/14 10:02:04;;;;;;;7.80;7.03;;;;;;;23.68;69.28;101103.50;4953007;28;102409;-80
2021/07/14 10:04:33;;;;;;;7.70;7.00;;;;;;;23.69;69.68;101110.69;4953598;28;104424;-80
2021/07/14 10:07:09;;;;;;;7.20;6.50;;;;;;;23.68;69.66;101100.72;4930487;28;104625;-80
2021/07/14 10:09:37;;;;;;;8.38;7.28;;;;;;;23.68;70.09;101100.72;4947460;28;102313;-79
2021/07/14 10:12:26;;;;;;;7.00;6.50;;;;;;;23.69;69.88;101098.75;4952894;28;102169;-79
2021/07/14 10:14:53;;;;;;;7.57;6.90;;;;;;;23.69;69.97;101096.81;4951793;28;103976;-78
2021/07/14 10:17:37;;;;;;;6.85;6.25;;;;;;;23.69;69.74;101099.59;4952677;28;102405;-78
2021/07/14 10:20:29;;;;;;;7.25;6.55;;;;;;;23.70;69.27;101101.19;4947564;28;102393;-77
2021/07/14 10:23:00;;;;;;;7.03;6.40;;;;;;;23.69;69.53;101098.75;4936044;28;102567;-77
2021/07/14 10:25:27;;;;;;;7.10;6.55;;;;;;;23.68;69.99;101100.72;4950758;28;103937;-77
2021/07/14 10:27:58;;;;;;;7.75;7.05;;;;;;;23.68;70.54;101092.38;4965272;28;102481;-76
2021/07/14 10:30:27;;;;;;;8.18;7.47;;;;;;;23.68;70.48;101103.50;4954987;28;102761;-76
2021/07/14 10:32:54;;;;;;;6.78;6.18;;;;;;;23.69;70.17;101090.41;4944644;28;102194;-76
2021/07/14 10:35:23;;;;;;;7.25;6.65;;;;;;;23.68;70.09;101092.38;4952881;28;103840;-76
2021/07/14 10:37:51;;;;;;;7.03;6.47;;;;;;;23.67;70.36;101090.78;4952669;28;102644;-77
2021/07/14 10:40:22;;;;;;;6.93;6.32;;;;;;;23.67;70.28;101090.78;4946272;28;102564;-78
2021/07/14 10:42:53;;;;;;;7.90;7.30;;;;;;;23.68;70.65;101097.94;4950712;28;102316;-77
2021/07/14 10:45:19;;;;;;;7.70;7.10;;;;;;;23.67;70.53;101090.78;4943316;28;104124;-77
2021/07/14 10:47:47;;;;;;;6.90;6.25;;;;;;;23.67;69.39;101093.56;4948658;28;102475;-77
2021/07/14 10:50:17;;;;;;;6.45;5.95;;;;;;;23.68;69.41;101089.59;4943868;28;102652;-77
2021/07/14 10:52:44;;;;;;;7.38;6.68;;;;;;;23.67;69.54;101084.41;4937411;28;102743;-77
2021/07/14 10:55:18;;;;;;;7.22;6.55;;;;;;;23.66;69.47;101083.56;4948200;28;103945;-77
2021/07/14 10:57:46;;;;;;;8.52;7.72;;;;;;;23.66;70.42;101086.34;4949688;28;102687;-77
2021/07/14 11:00:15;;;;;;;7.78;7.13;;;;;;;23.65;70.48;101093.06;4928514;28;102557;-76
2021/07/14 11:02:42;;;;;;;;;;;;;;;23.67;70.72;101087.19;4944617;28;102814;-77
2021/07/14 11:05:10;;;;;;;7.85;7.15;;;;;;;23.66;70.33;101089.13;4947271;28;102716;-77
2021/07/14 11:07:42;;;;;;;8.57;7.78;;;;;;;23.64;70.78;101088.66;4945372;28;102225;-76
2021/07/14 11:10:23;;;;;;;7.45;6.85;;;;;;;23.65;70.91;101087.50;4947895;28;102672;-76
2021/07/14 11:12:57;;;;;;;6.80;6.28;;;;;;;23.65;70.63;101084.72;4950703;28;102899;-77
2021/07/14 11:15:32;;;;;;;7.80;7.15;;;;;;;23.65;70.53;101081.94;4941723;28;103723;-77
2021/07/14 11:18:00;;;;;;;7.82;7.22;;;;;;;23.64;70.55;101077.56;4948538;28;102308;-78
2021/07/14 11:20:39;;;;;;;8.75;8.05;;;;;;;23.63;71.05;101067.59;4938732;28;102213;-77
2021/07/14 11:23:17;;;;;;;8.47;7.67;;;;;;;23.62;71.13;101082.66;4952429;28;102256;-78
2021/07/14 11:25:47;;;;;;;7.78;7.18;;;;;;;23.62;70.78;101079.06;4951655;28;103946;-78
2021/07/14 11:28:15;;;;;;;8.75;7.93;;;;;;;23.63;70.75;101067.59;4947148;28;102752;-79
2021/07/14 11:30:44;;;;;;;7.90;7.20;;;;;;;23.62;70.95;101074.34;4947940;28;102618;-78
2021/07/14 11:33:28;;;;;;;8.55;7.75;;;;;;;23.62;70.78;101077.13;4947212;28;102198;-78
2021/07/14 11:36:01;;;;;;;8.27;7.45;;;;;;;23.63;70.17;101072.34;4944458;28;103071;-78